APG552 RPVM-RPVE
Flight info
| Callsign | APG552 |
|---|---|
| Flight time | 0h 34m |
| Altitude | 22000 |
| Route | KEVAN1Q KEVAN TR2 BCD TR8 KLO KLO7A |
| Aircraft | A320/M-SDE3FGHIRWY/LB1 |
Departure
| Time | 2026-04-30 07:49 |
|---|---|
| Airport | Mactan Cebu International Airport (RPVM) |
Arrival
| Time | 2026-04-30 08:23 |
|---|---|
| Airport | Godofredo P. Ramos Airport (RPVE) |
| Time | Latitude | Longitude | Altitude | Speed | Heading |
|---|---|---|---|---|---|
| 2026-04-30 07:33 | 10.31505 | 123.97931 | 36 ft | 0 kts | 314° |
| 2026-04-30 07:38 | 10.31502 | 123.97935 | 36 ft | 2 kts | 314° |
| 2026-04-30 07:38 | 10.31491 | 123.97945 | 36 ft | 2 kts | 314° |
| 2026-04-30 07:38 | 10.31481 | 123.97957 | 36 ft | 2 kts | 314° |
| 2026-04-30 07:39 | 10.31474 | 123.97964 | 36 ft | 2 kts | 313° |
| 2026-04-30 07:39 | 10.31467 | 123.97977 | 36 ft | 2 kts | 283° |
| 2026-04-30 07:39 | 10.31466 | 123.97992 | 36 ft | 2 kts | 261° |
| 2026-04-30 07:39 | 10.31470 | 123.98006 | 36 ft | 2 kts | 238° |
| 2026-04-30 07:40 | 10.31475 | 123.98013 | 36 ft | 1 kts | 225° |
| 2026-04-30 07:40 | 10.31479 | 123.98017 | 36 ft | 0 kts | 225° |
| 2026-04-30 07:42 | 10.31474 | 123.98012 | 36 ft | 1 kts | 225° |
| 2026-04-30 07:42 | 10.31462 | 123.98000 | 36 ft | 3 kts | 226° |
| 2026-04-30 07:42 | 10.31443 | 123.97980 | 36 ft | 4 kts | 226° |
| 2026-04-30 07:42 | 10.31417 | 123.97952 | 36 ft | 6 kts | 225° |
| 2026-04-30 07:43 | 10.31384 | 123.97918 | 36 ft | 7 kts | 225° |
| 2026-04-30 07:43 | 10.31348 | 123.97894 | 36 ft | 6 kts | 188° |
| 2026-04-30 07:43 | 10.31305 | 123.97916 | 36 ft | 8 kts | 134° |
| 2026-04-30 07:43 | 10.31263 | 123.97960 | 36 ft | 9 kts | 134° |
| 2026-04-30 07:44 | 10.31221 | 123.97988 | 36 ft | 6 kts | 182° |
| 2026-04-30 07:44 | 10.31180 | 123.97958 | 36 ft | 8 kts | 225° |
| 2026-04-30 07:44 | 10.31136 | 123.97914 | 36 ft | 9 kts | 225° |
| 2026-04-30 07:44 | 10.31086 | 123.97864 | 36 ft | 10 kts | 225° |
| 2026-04-30 07:45 | 10.31029 | 123.97807 | 36 ft | 12 kts | 225° |
| 2026-04-30 07:45 | 10.30967 | 123.97745 | 36 ft | 13 kts | 224° |
| 2026-04-30 07:45 | 10.30900 | 123.97677 | 36 ft | 14 kts | 226° |
| 2026-04-30 07:45 | 10.30829 | 123.97604 | 36 ft | 14 kts | 224° |
| 2026-04-30 07:46 | 10.30754 | 123.97530 | 36 ft | 15 kts | 224° |
| 2026-04-30 07:46 | 10.30676 | 123.97451 | 36 ft | 16 kts | 225° |
| 2026-04-30 07:46 | 10.30594 | 123.97369 | 36 ft | 16 kts | 224° |
| 2026-04-30 07:46 | 10.30510 | 123.97285 | 36 ft | 17 kts | 224° |
| 2026-04-30 07:47 | 10.30434 | 123.97209 | 36 ft | 12 kts | 226° |
| 2026-04-30 07:47 | 10.30376 | 123.97160 | 36 ft | 8 kts | 196° |
| 2026-04-30 07:47 | 10.30326 | 123.97184 | 36 ft | 5 kts | 132° |
| 2026-04-30 07:47 | 10.30301 | 123.97212 | 36 ft | 2 kts | 123° |
| 2026-04-30 07:48 | 10.30308 | 123.97224 | 36 ft | 3 kts | 45° |
| 2026-04-30 07:48 | 10.30344 | 123.97260 | 36 ft | 23 kts | 44° |
| 2026-04-30 07:48 | 10.30647 | 123.97562 | 36 ft | 97 kts | 44° |
| 2026-04-30 07:48 | 10.31290 | 123.98209 | 39 ft | 157 kts | 45° |
| 2026-04-30 07:49 | 10.32072 | 123.99008 | 571 ft | 162 kts | 45° |
| 2026-04-30 07:49 | 10.32861 | 123.99808 | 1230 ft | 163 kts | 45° |
| 2026-04-30 07:49 | 10.33647 | 124.00600 | 1893 ft | 159 kts | 46° |
| 2026-04-30 07:49 | 10.34468 | 124.01430 | 2225 ft | 173 kts | 46° |
| 2026-04-30 07:50 | 10.35421 | 124.02259 | 2522 ft | 190 kts | 28° |
| 2026-04-30 07:50 | 10.36770 | 124.02478 | 2813 ft | 211 kts | 353° |
| 2026-04-30 07:50 | 10.38186 | 124.01793 | 3045 ft | 240 kts | 320° |
| 2026-04-30 07:50 | 10.39402 | 124.00552 | 3436 ft | 258 kts | 316° |
| 2026-04-30 07:51 | 10.40704 | 123.99194 | 3907 ft | 273 kts | 316° |
| 2026-04-30 07:51 | 10.41891 | 123.97688 | 4585 ft | 281 kts | 300° |
| 2026-04-30 07:51 | 10.42653 | 123.95863 | 5360 ft | 285 kts | 292° |
| 2026-04-30 07:51 | 10.43318 | 123.93953 | 6106 ft | 288 kts | 291° |
| 2026-04-30 07:52 | 10.43961 | 123.92041 | 6838 ft | 291 kts | 291° |
| 2026-04-30 07:52 | 10.44621 | 123.90083 | 7637 ft | 294 kts | 291° |
| 2026-04-30 07:52 | 10.45286 | 123.88129 | 8388 ft | 297 kts | 291° |
| 2026-04-30 07:52 | 10.45963 | 123.86149 | 9125 ft | 300 kts | 291° |
| 2026-04-30 07:53 | 10.46646 | 123.84161 | 9850 ft | 302 kts | 291° |
| 2026-04-30 07:53 | 10.47348 | 123.82121 | 10563 ft | 306 kts | 291° |
| 2026-04-30 07:53 | 10.48050 | 123.80080 | 11213 ft | 311 kts | 291° |
| 2026-04-30 07:53 | 10.48778 | 123.77971 | 11622 ft | 324 kts | 291° |
| 2026-04-30 07:54 | 10.49544 | 123.75751 | 11905 ft | 341 kts | 290° |
| 2026-04-30 07:54 | 10.50350 | 123.73413 | 12179 ft | 357 kts | 290° |
| 2026-04-30 07:54 | 10.51190 | 123.70976 | 12422 ft | 372 kts | 290° |
| 2026-04-30 07:54 | 10.52052 | 123.68473 | 12649 ft | 386 kts | 290° |
| 2026-04-30 07:55 | 10.52956 | 123.65847 | 12869 ft | 399 kts | 290° |
| 2026-04-30 07:55 | 10.53890 | 123.63130 | 13071 ft | 411 kts | 290° |
| 2026-04-30 07:55 | 10.54832 | 123.60390 | 13256 ft | 422 kts | 290° |
| 2026-04-30 07:55 | 10.55817 | 123.57521 | 13484 ft | 430 kts | 290° |
| 2026-04-30 07:56 | 10.56799 | 123.54660 | 13859 ft | 433 kts | 290° |
| 2026-04-30 07:56 | 10.57793 | 123.51768 | 14264 ft | 436 kts | 290° |
| 2026-04-30 07:56 | 10.58800 | 123.48834 | 14653 ft | 438 kts | 290° |
| 2026-04-30 07:56 | 10.59799 | 123.45922 | 15028 ft | 441 kts | 290° |
| 2026-04-30 07:57 | 10.60815 | 123.42960 | 15390 ft | 444 kts | 290° |
| 2026-04-30 07:57 | 10.61831 | 123.39996 | 15747 ft | 447 kts | 290° |
| 2026-04-30 07:57 | 10.62860 | 123.36993 | 16090 ft | 450 kts | 290° |
| 2026-04-30 07:57 | 10.63884 | 123.34002 | 16418 ft | 453 kts | 290° |
| 2026-04-30 07:58 | 10.64929 | 123.30952 | 16733 ft | 455 kts | 290° |
| 2026-04-30 07:58 | 10.65976 | 123.27893 | 17045 ft | 458 kts | 290° |
| 2026-04-30 07:58 | 10.67024 | 123.24859 | 17353 ft | 459 kts | 291° |
| 2026-04-30 07:58 | 10.68209 | 123.21833 | 17630 ft | 461 kts | 294° |
| 2026-04-30 07:59 | 10.69542 | 123.18890 | 17915 ft | 462 kts | 296° |
| 2026-04-30 07:59 | 10.70948 | 123.15927 | 18201 ft | 463 kts | 297° |
| 2026-04-30 07:59 | 10.72356 | 123.12981 | 18472 ft | 464 kts | 297° |
| 2026-04-30 08:00 | 10.75176 | 123.07065 | 18954 ft | 467 kts | 297° |
| 2026-04-30 08:00 | 10.76755 | 123.04192 | 19175 ft | 467 kts | 305° |
| 2026-04-30 08:00 | 10.78797 | 123.01627 | 19410 ft | 465 kts | 315° |
| 2026-04-30 08:00 | 10.81200 | 122.99477 | 19636 ft | 464 kts | 325° |
| 2026-04-30 08:01 | 10.83857 | 122.97572 | 19868 ft | 464 kts | 327° |
| 2026-04-30 08:01 | 10.86527 | 122.95727 | 20076 ft | 465 kts | 327° |
| 2026-04-30 08:01 | 10.89226 | 122.93871 | 20298 ft | 466 kts | 327° |
| 2026-04-30 08:01 | 10.91892 | 122.92030 | 20501 ft | 467 kts | 327° |
| 2026-04-30 08:02 | 10.97278 | 122.88284 | 20902 ft | 468 kts | 327° |
| 2026-04-30 08:02 | 10.99980 | 122.86395 | 21090 ft | 469 kts | 327° |
| 2026-04-30 08:03 | 11.05367 | 122.82622 | 21446 ft | 470 kts | 327° |
| 2026-04-30 08:03 | 11.10787 | 122.78825 | 21765 ft | 472 kts | 327° |
| 2026-04-30 08:03 | 11.13500 | 122.76922 | 21902 ft | 473 kts | 327° |
| 2026-04-30 08:04 | 11.16243 | 122.74998 | 21920 ft | 477 kts | 327° |
| 2026-04-30 08:04 | 11.19002 | 122.73062 | 21922 ft | 481 kts | 327° |
| 2026-04-30 08:04 | 11.21758 | 122.71127 | 21925 ft | 484 kts | 327° |
| 2026-04-30 08:04 | 11.24525 | 122.69183 | 21927 ft | 486 kts | 327° |
| 2026-04-30 08:05 | 11.27310 | 122.67226 | 21924 ft | 487 kts | 327° |
| 2026-04-30 08:05 | 11.30120 | 122.65253 | 21922 ft | 487 kts | 327° |
| 2026-04-30 08:05 | 11.32944 | 122.63274 | 21921 ft | 487 kts | 327° |
| 2026-04-30 08:05 | 11.35714 | 122.61333 | 21924 ft | 487 kts | 327° |
| 2026-04-30 08:06 | 11.38502 | 122.59377 | 21925 ft | 487 kts | 327° |
| 2026-04-30 08:06 | 11.41332 | 122.57389 | 21925 ft | 487 kts | 327° |
| 2026-04-30 08:06 | 11.44091 | 122.55450 | 21930 ft | 487 kts | 327° |
| 2026-04-30 08:06 | 11.46890 | 122.53482 | 21931 ft | 487 kts | 327° |
| 2026-04-30 08:07 | 11.49672 | 122.51524 | 21773 ft | 477 kts | 327° |
| 2026-04-30 08:07 | 11.52373 | 122.49622 | 21532 ft | 472 kts | 327° |
| 2026-04-30 08:07 | 11.55060 | 122.47728 | 21095 ft | 468 kts | 327° |
| 2026-04-30 08:07 | 11.57742 | 122.45837 | 20518 ft | 464 kts | 327° |
| 2026-04-30 08:08 | 11.60391 | 122.43970 | 19845 ft | 459 kts | 327° |
| 2026-04-30 08:08 | 11.62994 | 122.42136 | 19141 ft | 453 kts | 327° |
| 2026-04-30 08:08 | 11.65563 | 122.40303 | 18420 ft | 449 kts | 325° |
| 2026-04-30 08:08 | 11.67968 | 122.38290 | 17681 ft | 447 kts | 320° |
| 2026-04-30 08:09 | 11.70159 | 122.36050 | 16934 ft | 445 kts | 314° |
| 2026-04-30 08:09 | 11.72129 | 122.33662 | 16215 ft | 442 kts | 310° |
| 2026-04-30 08:09 | 11.74040 | 122.31232 | 15515 ft | 439 kts | 309° |
| 2026-04-30 08:09 | 11.75942 | 122.28790 | 14808 ft | 435 kts | 309° |
| 2026-04-30 08:10 | 11.77823 | 122.26374 | 14119 ft | 431 kts | 309° |
| 2026-04-30 08:10 | 11.79660 | 122.24022 | 13438 ft | 427 kts | 309° |
| 2026-04-30 08:10 | 11.81507 | 122.21661 | 12778 ft | 422 kts | 309° |
| 2026-04-30 08:10 | 11.83325 | 122.19337 | 12283 ft | 411 kts | 309° |
| 2026-04-30 08:11 | 11.85069 | 122.17110 | 11880 ft | 399 kts | 309° |
| 2026-04-30 08:11 | 11.86789 | 122.14913 | 11571 ft | 385 kts | 309° |
| 2026-04-30 08:11 | 11.88431 | 122.12816 | 11282 ft | 371 kts | 309° |
| 2026-04-30 08:11 | 11.90008 | 122.10803 | 11019 ft | 359 kts | 309° |
| 2026-04-30 08:12 | 11.91555 | 122.08828 | 10772 ft | 347 kts | 309° |
| 2026-04-30 08:12 | 11.93032 | 122.06942 | 10555 ft | 335 kts | 309° |
| 2026-04-30 08:12 | 11.94465 | 122.05112 | 10357 ft | 323 kts | 309° |
| 2026-04-30 08:12 | 11.95830 | 122.03368 | 10184 ft | 312 kts | 309° |
| 2026-04-30 08:13 | 11.97173 | 122.01652 | 10024 ft | 301 kts | 310° |
| 2026-04-30 08:13 | 11.98463 | 122.00003 | 9717 ft | 298 kts | 309° |
| 2026-04-30 08:13 | 11.99761 | 121.98347 | 9346 ft | 297 kts | 310° |
| 2026-04-30 08:13 | 12.01043 | 121.96709 | 8984 ft | 295 kts | 309° |
| 2026-04-30 08:14 | 12.02328 | 121.95068 | 8626 ft | 293 kts | 310° |
| 2026-04-30 08:14 | 12.03403 | 121.93309 | 8227 ft | 294 kts | 288° |
| 2026-04-30 08:14 | 12.03524 | 121.91275 | 7858 ft | 293 kts | 257° |
| 2026-04-30 08:14 | 12.02661 | 121.89412 | 7500 ft | 289 kts | 233° |
| 2026-04-30 08:15 | 12.01467 | 121.87775 | 7158 ft | 288 kts | 232° |
| 2026-04-30 08:15 | 12.00273 | 121.86128 | 6810 ft | 286 kts | 233° |
| 2026-04-30 08:15 | 11.99107 | 121.84483 | 6469 ft | 285 kts | 233° |
| 2026-04-30 08:15 | 11.97964 | 121.82848 | 6136 ft | 284 kts | 234° |
| 2026-04-30 08:16 | 11.96827 | 121.81203 | 5802 ft | 282 kts | 234° |
| 2026-04-30 08:16 | 11.95696 | 121.79560 | 5471 ft | 280 kts | 234° |
| 2026-04-30 08:16 | 11.94581 | 121.77937 | 5146 ft | 278 kts | 234° |
| 2026-04-30 08:16 | 11.93477 | 121.76332 | 4824 ft | 276 kts | 233° |
| 2026-04-30 08:17 | 11.92333 | 121.74744 | 4476 ft | 274 kts | 225° |
| 2026-04-30 08:17 | 11.90768 | 121.73741 | 4114 ft | 265 kts | 188° |
| 2026-04-30 08:17 | 11.89036 | 121.73834 | 4040 ft | 240 kts | 155° |
| 2026-04-30 08:17 | 11.87614 | 121.74554 | 4006 ft | 214 kts | 147° |
| 2026-04-30 08:18 | 11.86380 | 121.75256 | 4029 ft | 194 kts | 146° |
| 2026-04-30 08:18 | 11.85183 | 121.75924 | 3983 ft | 192 kts | 147° |
| 2026-04-30 08:18 | 11.84147 | 121.76717 | 3804 ft | 184 kts | 121° |
| 2026-04-30 08:18 | 11.83826 | 121.77923 | 3563 ft | 177 kts | 85° |
| 2026-04-30 08:19 | 11.84235 | 121.79102 | 3358 ft | 178 kts | 63° |
| 2026-04-30 08:19 | 11.84813 | 121.80212 | 3146 ft | 176 kts | 63° |
| 2026-04-30 08:19 | 11.85383 | 121.81323 | 2929 ft | 175 kts | 64° |
| 2026-04-30 08:19 | 11.85945 | 121.82426 | 2716 ft | 174 kts | 64° |
| 2026-04-30 08:20 | 11.86493 | 121.83508 | 2481 ft | 173 kts | 64° |
| 2026-04-30 08:20 | 11.87032 | 121.84574 | 2244 ft | 164 kts | 64° |
| 2026-04-30 08:20 | 11.87536 | 121.85574 | 2024 ft | 150 kts | 65° |
| 2026-04-30 08:20 | 11.87989 | 121.86476 | 1850 ft | 135 kts | 65° |
| 2026-04-30 08:21 | 11.88404 | 121.87299 | 1669 ft | 128 kts | 64° |
| 2026-04-30 08:21 | 11.88810 | 121.88112 | 1508 ft | 127 kts | 65° |
| 2026-04-30 08:21 | 11.89207 | 121.88904 | 1336 ft | 126 kts | 65° |
| 2026-04-30 08:21 | 11.89607 | 121.89697 | 1185 ft | 126 kts | 65° |
| 2026-04-30 08:22 | 11.90009 | 121.90498 | 1022 ft | 126 kts | 65° |
| 2026-04-30 08:22 | 11.90404 | 121.91285 | 830 ft | 125 kts | 65° |
| 2026-04-30 08:22 | 11.90816 | 121.92071 | 672 ft | 125 kts | 65° |
| 2026-04-30 08:22 | 11.91203 | 121.92859 | 502 ft | 124 kts | 66° |
| 2026-04-30 08:23 | 11.91587 | 121.93658 | 337 ft | 124 kts | 65° |
| 2026-04-30 08:23 | 11.91978 | 121.94437 | 179 ft | 121 kts | 66° |
| 2026-04-30 08:23 | 11.92356 | 121.95197 | 33 ft | 118 kts | 66° |
| 2026-04-30 08:23 | 11.92626 | 121.95734 | 30 ft | 46 kts | 62° |
| 2026-04-30 08:24 | 11.92750 | 121.95980 | 30 ft | 30 kts | 63° |
| 2026-04-30 08:24 | 11.92802 | 121.96085 | 30 ft | 9 kts | 62° |
| 2026-04-30 08:24 | 11.92808 | 121.96105 | 30 ft | 1 kts | 115° |
| 2026-04-30 08:24 | 11.92793 | 121.96117 | 30 ft | 3 kts | 153° |
| 2026-04-30 08:25 | 11.92772 | 121.96127 | 30 ft | 3 kts | 152° |
| 2026-04-30 08:25 | 11.92746 | 121.96141 | 30 ft | 4 kts | 153° |
| 2026-04-30 08:25 | 11.92716 | 121.96156 | 30 ft | 5 kts | 153° |
| 2026-04-30 08:25 | 11.92681 | 121.96175 | 30 ft | 5 kts | 153° |
| 2026-04-30 08:26 | 11.92649 | 121.96192 | 30 ft | 4 kts | 149° |
| 2026-04-30 08:26 | 11.92639 | 121.96219 | 30 ft | 5 kts | 77° |
| 2026-04-30 08:26 | 11.92657 | 121.96256 | 30 ft | 6 kts | 63° |
| 2026-04-30 08:26 | 11.92674 | 121.96293 | 30 ft | 3 kts | 73° |
| 2026-04-30 08:27 | 11.92666 | 121.96313 | 30 ft | 3 kts | 142° |
| 2026-04-30 08:27 | 11.92642 | 121.96326 | 30 ft | 2 kts | 153° |
| 2026-04-30 08:27 | 11.92633 | 121.96331 | 30 ft | 0 kts | 153° |
| 2026-04-30 08:27 | 11.92631 | 121.96332 | 30 ft | 0 kts | 153° |